Airport ICAO


07:27 UTC

24°C

Clear skies


An affordable passengers' Moving Map for your aircraft. Made for the iPad and the iPhone
More information here

LFMD Mandelieu


Cannes FRANCE   VFR CAVOK


METAR LFMD 190700Z AUTO 36003KT 290V050 CAVOK 24/16 Q1017 NOSIG 0h27min

TAF LFMD 190200Z 1903/2003 36010KT CAVOK BECMG 1909/1910 18010KT BECMG 1919/1921 34010KT 5h27min





NOTAMS

OPEN